Woodstock, Connecticut
Current Conditions -  °F | °C
As of 9:52 PM on Wednesday 22 Oct 2014 (Local Time) from KIJD Reporting Station
Moderate Rain Moderate Rain  
Wind Chill: 51°   Ceiling: 1400
Heat Index: 51°   Visibility: 4mi
Dew Point: 47°   Wind: 21mph
Humidity: 86%   Direction: 30°NNE
Pressure: 29.76"   Gusts: 36mph
Location:  41.95°N, 71.97°W
Report Text: KIJD 230152Z AUTO 03018G31KT 4SM RA BR BKN014 OVC023 11/08 A2976 RMK AO2 PK WND 03037/0139 LTG DSNT ALQDS SLP076 P0009 T01060083
Loading
Personal Weather Stations






























Interactive Weather Map
Tropical Storm Tracking
New forecast layout! Learn more

10-Day Weather Forecast

Advertisements
Track Severe Weather on mobile